Time;durP1;ratioP1;P1;durP2;ratioP2;P2;SDS_P1;SDS_P2;PMS_P1;PMS_P2;Temp;Humidity;BMP_temperature;BMP_pressure;BME280_temperature;BME280_humidity;BME280_pressure;Samples;Min_cycle;Max_cycle;Signal;HPM_P1;HPM_P2
2023/07/07 00:01:52;;;;;;;3.90;2.60;;;12.00;99.90;;;;;;5108747;28;20119;-75
2023/07/07 00:04:19;;;;;;;6.28;2.70;;;12.00;99.90;;;;;;5109889;28;20064;-77
2023/07/07 00:06:45;;;;;;;6.03;2.42;;;12.00;99.90;;;;;;5109796;28;20047;-75
2023/07/07 00:09:10;;;;;;;4.47;2.60;;;11.90;99.90;;;;;;5109728;28;20036;-75
2023/07/07 00:11:36;;;;;;;4.28;2.22;;;12.20;99.90;;;;;;5108795;28;20035;-76
2023/07/07 00:14:03;;;;;;;6.88;2.53;;;11.90;99.90;;;;;;5108673;28;20066;-74
2023/07/07 00:16:29;;;;;;;6.20;2.17;;;11.90;99.90;;;;;;5099431;28;20043;-74
2023/07/07 00:18:56;;;;;;;5.15;2.58;;;11.90;99.90;;;;;;5108506;28;20044;-75
2023/07/07 00:21:24;;;;;;;3.53;2.22;;;11.80;99.90;;;;;;5109876;28;20048;-77
2023/07/07 00:23:55;;;;;;;3.88;2.20;;;11.70;99.90;;;;;;5109920;28;20473;-75
2023/07/07 00:26:22;;;;;;;7.13;2.40;;;11.70;99.90;;;;;;5108355;28;20055;-76
2023/07/07 00:28:48;;;;;;;5.13;2.70;;;11.60;99.90;;;;;;5109044;28;20542;-76
2023/07/07 00:31:18;;;;;;;3.53;2.20;;;11.90;99.90;;;;;;5107783;28;20055;-77
2023/07/07 00:33:43;;;;;;;4.85;2.50;;;11.60;99.90;;;;;;5109486;28;20555;-76
2023/07/07 00:36:09;;;;;;;5.38;2.75;;;11.60;99.90;;;;;;5108305;28;20053;-74
2023/07/07 00:38:35;;;;;;;3.65;2.40;;;11.60;99.90;;;;;;5109715;28;20050;-74
2023/07/07 00:41:02;;;;;;;4.95;2.60;;;11.80;99.90;;;;;;5111911;28;20236;-75
2023/07/07 00:43:28;;;;;;;4.65;2.78;;;12.10;99.90;;;;;;5111913;28;20046;-75
2023/07/07 00:45:56;;;;;;;7.30;2.75;;;11.60;99.90;;;;;;5112695;28;20054;-75
2023/07/07 00:48:41;;;;;;;4.10;2.50;;;11.60;99.90;;;;;;5113408;28;20041;-76
2023/07/07 00:51:14;;;;;;;5.38;2.40;;;11.50;99.90;;;;;;5103717;28;20047;-75
2023/07/07 00:53:45;;;;;;;5.90;2.78;;;11.50;99.90;;;;;;5111708;28;20051;-73
2023/07/07 00:56:19;;;;;;;5.80;3.00;;;11.80;99.90;;;;;;5104662;28;20054;-75
2023/07/07 00:58:45;;;;;;;5.85;2.55;;;11.80;99.90;;;;;;5111943;28;20432;-75
2023/07/07 01:01:17;;;;;;;9.02;3.20;;;11.50;99.90;;;;;;5112559;28;20079;-73
2023/07/07 01:03:46;;;;;;;6.18;3.00;;;11.50;99.90;;;;;;5113260;28;20035;-76
2023/07/07 01:06:17;;;;;;;4.25;2.80;;;11.50;99.90;;;;;;5112703;28;21124;-74
2023/07/07 01:08:45;;;;;;;5.22;2.88;;;11.70;99.90;;;;;;5113053;28;20082;-76
2023/07/07 01:11:11;;;;;;;4.38;2.72;;;11.50;99.90;;;;;;5112467;28;20047;-75
2023/07/07 01:13:37;;;;;;;5.43;2.83;;;11.50;99.90;;;;;;5111325;28;20043;-74
2023/07/07 01:16:18;;;;;;;6.50;2.42;;;11.50;99.90;;;;;;5112504;28;20043;-76
2023/07/07 01:19:17;;;;;;;4.07;2.47;;;11.80;99.90;;;;;;5110140;28;20452;-74
2023/07/07 01:22:14;;;;;;;4.30;2.78;;;11.40;99.90;;;;;;5105527;28;20123;-75
2023/07/07 01:25:26;;;;;;;4.75;2.13;;;11.30;99.90;;;;;;5103302;28;20040;-76
2023/07/07 01:28:14;;;;;;;6.50;2.40;;;11.30;99.90;;;;;;5105712;28;20040;-76
2023/07/07 01:30:45;;;;;;;7.00;2.65;;;11.30;99.90;;;;;;5110933;28;20052;-76
2023/07/07 01:33:16;;;;;;;6.15;2.78;;;11.70;99.90;;;;;;5112316;28;20398;-74
2023/07/07 01:35:42;;;;;;;8.15;3.13;;;11.30;99.90;;;;;;5111020;28;20048;-75
2023/07/07 01:38:32;;;;;;;7.00;3.20;;;11.50;99.90;;;;;;5111948;27;20122;-74
2023/07/07 01:41:07;;;;;;;4.45;2.80;;;11.40;99.90;;;;;;5104604;28;20558;-75
2023/07/07 01:43:48;;;;;;;6.07;3.33;;;11.40;99.90;;;;;;5112418;27;20127;-74
2023/07/07 01:46:36;;;;;;;6.38;2.80;;;11.40;99.90;;;;;;5110413;28;20056;-74
2023/07/07 01:49:16;;;;;;;5.50;3.15;;;11.30;99.90;;;;;;5103425;28;20402;-74
2023/07/07 01:51:54;;;;;;;5.60;2.75;;;11.30;99.90;;;;;;5111533;28;20184;-75
2023/07/07 01:54:21;;;;;;;7.97;3.08;;;11.20;99.90;;;;;;5110402;28;20050;-74
2023/07/07 01:56:48;;;;;;;9.32;2.95;;;11.40;99.90;;;;;;5111001;28;20031;-74
2023/07/07 01:59:15;;;;;;;4.55;2.58;;;11.20;99.90;;;;;;5112172;27;20077;-76
2023/07/07 02:01:41;;;;;;;3.25;2.15;;;11.20;99.90;;;;;;5111344;28;20044;-73
2023/07/07 02:04:07;;;;;;;7.78;2.58;;;11.10;99.90;;;;;;5109382;28;20069;-76
2023/07/07 02:06:33;;;;;;;5.13;2.83;;;11.10;99.90;;;;;;5111531;28;20931;-73
2023/07/07 02:08:58;;;;;;;6.45;2.60;;;11.60;99.90;;;;;;5111948;28;20046;-73
2023/07/07 02:11:24;;;;;;;4.82;2.90;;;11.10;99.90;;;;;;5110724;28;20043;-75
2023/07/07 02:13:50;;;;;;;4.03;2.25;;;11.00;99.90;;;;;;5111020;28;20177;-76
2023/07/07 02:16:16;;;;;;;4.75;2.70;;;10.90;99.90;;;;;;5110261;28;20075;-74
2023/07/07 02:18:41;;;;;;;6.15;2.97;;;11.00;99.90;;;;;;5111137;28;20510;-76
2023/07/07 02:21:07;;;;;;;5.93;2.53;;;11.00;99.90;;;;;;5110580;28;20043;-75
2023/07/07 02:23:33;;;;;;;6.25;2.67;;;11.30;99.90;;;;;;5109718;28;20039;-76
2023/07/07 02:25:59;;;;;;;8.68;3.03;;;10.90;99.90;;;;;;5109863;28;20448;-76
2023/07/07 02:28:24;;;;;;;8.25;3.30;;;11.00;99.90;;;;;;5110890;28;20044;-75
2023/07/07 02:30:52;;;;;;;9.68;3.17;;;10.80;99.90;;;;;;5110183;28;20402;-76
2023/07/07 02:33:18;;;;;;;6.00;3.25;;;11.10;99.90;;;;;;5111396;28;20441;-76
2023/07/07 02:35:48;;;;;;;5.57;3.60;;;10.80;99.90;;;;;;5108905;28;20052;-76
2023/07/07 02:38:14;;;;;;;7.25;3.75;;;10.80;99.90;;;;;;5109565;28;20047;-73
2023/07/07 02:40:41;;;;;;;7.32;4.15;;;10.90;99.90;;;;;;5110439;28;20043;-76
2023/07/07 02:43:07;;;;;;;7.32;4.32;;;11.00;99.90;;;;;;5111099;28;20043;-75
2023/07/07 02:45:33;;;;;;;7.40;4.57;;;10.80;99.90;;;;;;5110929;28;20088;-75
2023/07/07 02:47:59;;;;;;;6.03;4.00;;;10.80;99.90;;;;;;5110283;28;20036;-76
2023/07/07 02:50:24;;;;;;;10.15;5.25;;;10.90;99.90;;;;;;5110183;28;20047;-76
2023/07/07 02:52:50;;;;;;;10.63;5.65;;;11.00;99.90;;;;;;5110312;28;20055;-74
2023/07/07 02:55:16;;;;;;;9.60;5.60;;;10.90;99.90;;;;;;5110851;28;20440;-75
2023/07/07 02:57:41;;;;;;;9.70;6.45;;;11.20;99.90;;;;;;5091844;28;20413;-75
2023/07/07 03:00:09;;;;;;;14.77;5.97;;;11.00;99.90;;;;;;5109948;28;20071;-75
2023/07/07 03:02:34;;;;;;;13.15;5.72;;;11.00;99.90;;;;;;5108666;28;20543;-75
2023/07/07 03:05:00;;;;;;;9.48;7.15;;;11.10;99.90;;;;;;5109208;28;20047;-76
2023/07/07 03:07:26;;;;;;;13.50;7.43;;;11.20;99.90;;;;;;5108780;28;20398;-75
2023/07/07 03:09:51;;;;;;;12.02;7.60;;;11.20;99.90;;;;;;5108782;28;20051;-75
2023/07/07 03:12:17;;;;;;;14.85;8.18;;;11.30;99.90;;;;;;5109977;28;20050;-76
2023/07/07 03:14:42;;;;;;;16.85;8.43;;;11.30;99.90;;;;;;5109964;28;20047;-76
2023/07/07 03:17:09;;;;;;;13.48;8.00;;;11.40;99.90;;;;;;5108954;28;20500;-74
2023/07/07 03:19:35;;;;;;;10.90;7.82;;;11.40;99.90;;;;;;5110430;28;20043;-75
2023/07/07 03:22:00;;;;;;;13.82;9.20;;;11.50;99.90;;;;;;5109620;28;20097;-77
2023/07/07 03:24:26;;;;;;;11.77;8.63;;;11.60;99.90;;;;;;5110178;28;20040;-76
2023/07/07 03:26:52;;;;;;;14.65;8.77;;;11.50;99.90;;;;;;5110196;28;20045;-78
2023/07/07 03:29:17;;;;;;;14.32;8.60;;;11.50;99.90;;;;;;5109975;28;20035;-75
2023/07/07 03:31:43;;;;;;;13.48;9.18;;;11.60;99.90;;;;;;5108178;28;20047;-75
2023/07/07 03:34:08;;;;;;;13.90;9.68;;;12.00;99.90;;;;;;5110531;28;20545;-77
2023/07/07 03:36:35;;;;;;;15.57;9.40;;;11.70;99.90;;;;;;5109919;28;20047;-77
2023/07/07 03:39:01;;;;;;;16.23;9.27;;;11.70;99.90;;;;;;5110576;28;20398;-76
2023/07/07 03:41:29;;;;;;;17.95;10.43;;;11.80;99.90;;;;;;5110003;28;20040;-76
2023/07/07 03:43:55;;;;;;;16.95;10.57;;;12.10;99.90;;;;;;5108385;28;20052;-75
2023/07/07 03:46:23;;;;;;;16.77;10.48;;;11.80;99.90;;;;;;5110152;28;20478;-75
2023/07/07 03:48:53;;;;;;;14.45;10.63;;;11.90;99.90;;;;;;5108575;28;20509;-76
2023/07/07 03:51:20;;;;;;;19.05;10.55;;;11.90;99.90;;;;;;5136511;27;20044;-74
2023/07/07 03:53:47;;;;;;;15.52;9.75;;;11.90;99.90;;;;;;5109369;28;20058;-76
2023/07/07 03:56:13;;;;;;;16.60;10.80;;;12.00;99.90;;;;;;5108275;28;20035;-77
2023/07/07 03:58:39;;;;;;;15.70;10.63;;;12.40;99.90;;;;;;5109842;28;20046;-76
2023/07/07 04:01:07;;;;;;;18.40;10.65;;;12.20;99.90;;;;;;5109813;28;20040;-75
2023/07/07 04:03:34;;;;;;;15.85;10.45;;;12.10;99.90;;;;;;5109559;28;20050;-75
2023/07/07 04:06:00;;;;;;;18.50;12.73;;;12.20;99.90;;;;;;5108352;28;20060;-76
2023/07/07 04:08:26;;;;;;;18.65;11.23;;;12.10;99.90;;;;;;5109508;28;20044;-74
2023/07/07 04:11:04;;;;;;;18.13;11.07;;;12.30;99.90;;;;;;5107911;28;20125;-76
2023/07/07 04:13:31;;;;;;;15.27;10.50;;;12.20;99.90;;;;;;5104038;28;20078;-76
2023/07/07 04:16:18;;;;;;;18.38;11.98;;;12.30;99.90;;;;;;5113633;28;20039;-77
2023/07/07 04:18:45;;;;;;;21.48;11.48;;;12.50;99.90;;;;;;5105695;28;20046;-77
2023/07/07 04:21:14;;;;;;;14.63;11.05;;;12.40;99.90;;;;;;5112397;28;20047;-75
2023/07/07 04:23:42;;;;;;;16.55;11.73;;;12.50;99.90;;;;;;5113265;28;20054;-75
2023/07/07 04:26:09;;;;;;;22.40;12.10;;;12.50;99.90;;;;;;5113237;28;20058;-77
2023/07/07 04:28:38;;;;;;;19.35;12.30;;;12.70;99.90;;;;;;5112076;28;20094;-77
2023/07/07 04:31:06;;;;;;;18.98;13.75;;;13.00;99.90;;;;;;5112197;28;20075;-75
2023/07/07 04:33:32;;;;;;;19.55;12.68;;;12.60;99.90;;;;;;5113481;28;20058;-76
2023/07/07 04:36:01;;;;;;;20.13;13.15;;;12.60;99.90;;;;;;5111970;28;20097;-76
2023/07/07 04:38:31;;;;;;;17.15;12.63;;;12.70;99.90;;;;;;5110542;28;20091;-77
2023/07/07 04:41:13;;;;;;;18.98;13.02;;;12.70;99.90;;;;;;5113402;28;20035;-76
2023/07/07 04:43:43;;;;;;;15.30;11.75;;;12.80;99.90;;;;;;5112992;28;20050;-75
2023/07/07 04:46:11;;;;;;;23.63;12.35;;;12.80;99.90;;;;;;5113260;28;20035;-75
2023/07/07 04:48:37;;;;;;;16.15;12.38;;;12.90;99.90;;;;;;5111737;28;20047;-76
2023/07/07 04:51:07;;;;;;;18.95;12.77;;;13.00;99.90;;;;;;5113249;28;20088;-74
2023/07/07 04:53:33;;;;;;;19.42;13.35;;;13.10;99.90;;;;;;5113539;28;20489;-74
2023/07/07 04:56:00;;;;;;;22.15;13.65;;;13.10;99.90;;;;;;5111166;28;20056;-73
2023/07/07 04:58:26;;;;;;;22.35;13.68;;;13.20;99.90;;;;;;5113084;28;20119;-75
2023/07/07 05:00:53;;;;;;;21.35;12.85;;;13.20;99.90;;;;;;5111840;28;20044;-75
2023/07/07 05:03:19;;;;;;;21.17;13.90;;;13.30;99.90;;;;;;5113507;28;20107;-76
2023/07/07 05:05:45;;;;;;;19.13;12.93;;;13.40;99.90;;;;;;5113474;28;20067;-75
2023/07/07 05:08:11;;;;;;;22.27;14.45;;;13.50;99.90;;;;;;5113012;28;20128;-74
2023/07/07 05:10:36;;;;;;;18.05;12.68;;;13.60;99.90;;;;;;5112634;28;20104;-75
2023/07/07 05:13:02;;;;;;;18.58;13.45;;;13.60;99.90;;;;;;5111174;28;20510;-76
2023/07/07 05:15:28;;;;;;;19.05;12.25;;;13.80;99.90;;;;;;5111499;28;20118;-75
2023/07/07 05:17:53;;;;;;;18.20;12.98;;;13.90;99.90;;;;;;5111076;28;20070;-73
2023/07/07 05:20:19;;;;;;;18.52;13.55;;;14.00;99.90;;;;;;5111031;28;20134;-76
2023/07/07 05:22:44;;;;;;;20.75;13.00;;;14.10;99.90;;;;;;5112180;28;20481;-76
2023/07/07 05:25:10;;;;;;;20.10;12.98;;;14.20;99.90;;;;;;5111578;28;20043;-73
2023/07/07 05:27:36;;;;;;;14.93;12.30;;;14.30;99.90;;;;;;5145858;27;20100;-76
2023/07/07 05:30:01;;;;;;;19.02;13.60;;;14.40;99.90;;;;;;5112523;28;20039;-77
2023/07/07 05:32:27;;;;;;;24.55;13.18;;;14.50;99.90;;;;;;5110879;28;20444;-76
2023/07/07 05:34:52;;;;;;;16.65;12.27;;;14.60;99.90;;;;;;5111428;28;20050;-75
2023/07/07 05:37:18;;;;;;;20.05;13.13;;;14.70;99.90;;;;;;5112318;28;20417;-76
2023/07/07 05:39:47;;;;;;;18.23;13.15;;;14.80;99.90;;;;;;5110456;28;20027;-74
2023/07/07 05:42:13;;;;;;;15.95;12.93;;;15.00;99.90;;;;;;5112085;28;20123;-74
2023/07/07 05:44:38;;;;;;;18.15;12.32;;;15.10;99.90;;;;;;5111893;28;20119;-73
2023/07/07 05:47:04;;;;;;;18.80;12.18;;;15.20;99.90;;;;;;5112110;28;20116;-75
2023/07/07 05:49:30;;;;;;;24.38;12.15;;;15.40;99.90;;;;;;5112484;28;20051;-74
2023/07/07 05:51:55;;;;;;;21.40;12.20;;;15.50;99.90;;;;;;5110533;28;20060;-75
2023/07/07 05:54:21;;;;;;;19.17;13.35;;;15.60;99.90;;;;;;5112240;28;20051;-73
2023/07/07 05:56:48;;;;;;;18.35;11.40;;;15.70;99.90;;;;;;5111857;28;20052;-72
2023/07/07 05:59:13;;;;;;;14.43;10.88;;;15.90;99.90;;;;;;5112301;28;20035;-75
2023/07/07 06:01:39;;;;;;;15.95;11.80;;;16.00;99.90;;;;;;5111883;28;20160;-74
2023/07/07 06:04:04;;;;;;;20.25;11.02;;;16.20;99.90;;;;;;5112292;28;20448;-74
2023/07/07 06:06:30;;;;;;;16.45;9.88;;;16.30;99.90;;;;;;5112578;28;20039;-74
2023/07/07 06:08:56;;;;;;;18.30;11.40;;;16.40;99.90;;;;;;5112137;28;20531;-73
2023/07/07 06:11:21;;;;;;;16.38;9.90;;;16.60;99.90;;;;;;5111927;28;20044;-75
2023/07/07 06:13:47;;;;;;;12.88;9.50;;;16.70;99.90;;;;;;5110478;28;20039;-76
2023/07/07 06:16:13;;;;;;;17.98;9.82;;;16.90;99.90;;;;;;5111559;28;20093;-72
2023/07/07 06:18:39;;;;;;;19.15;9.73;;;17.00;99.90;;;;;;5111751;28;20043;-74
2023/07/07 06:21:05;;;;;;;14.07;9.30;;;17.10;99.90;;;;;;5110376;28;20443;-76
2023/07/07 06:23:32;;;;;;;13.95;8.82;;;17.30;99.90;;;;;;5110520;28;20401;-75
2023/07/07 06:25:57;;;;;;;15.52;9.63;;;17.40;99.90;;;;;;5109439;28;20043;-73
2023/07/07 06:28:23;;;;;;;13.63;9.60;;;17.50;99.90;;;;;;5110754;28;20393;-76
2023/07/07 06:30:50;;;;;;;17.95;9.65;;;17.60;99.90;;;;;;5110177;28;20464;-77
2023/07/07 06:33:17;;;;;;;16.27;9.30;;;17.80;99.90;;;;;;5110758;28;20085;-76
2023/07/07 06:35:43;;;;;;;13.35;8.55;;;17.90;99.90;;;;;;5109162;28;20113;-76
2023/07/07 06:38:09;;;;;;;13.70;8.77;;;18.10;99.90;;;;;;5109671;28;20511;-74
2023/07/07 06:40:34;;;;;;;15.00;8.77;;;18.30;99.90;;;;;;5136199;27;20055;-75
2023/07/07 06:43:04;;;;;;;12.70;8.60;;;18.40;99.90;;;;;;5110736;28;20557;-76
2023/07/07 06:45:31;;;;;;;13.05;7.60;;;18.70;99.90;;;;;;5109570;28;20047;-74
2023/07/07 06:47:57;;;;;;;18.85;8.32;;;18.90;99.90;;;;;;5102348;28;20046;-75
2023/07/07 06:50:32;;;;;;;15.57;7.93;;;19.10;99.90;;;;;;5110762;28;20039;-75
2023/07/07 06:52:57;;;;;;;12.73;7.90;;;19.30;99.90;;;;;;5108995;28;20060;-75
2023/07/07 06:55:23;;;;;;;11.90;7.07;;;19.60;99.90;;;;;;5110966;28;20039;-75
2023/07/07 06:57:49;;;;;;;13.70;7.38;;;19.80;99.90;;;;;;5110895;28;20398;-74
2023/07/07 07:00:16;;;;;;;15.50;7.57;;;20.10;99.90;;;;;;5110287;28;20445;-73
2023/07/07 07:02:43;;;;;;;10.57;6.95;;;20.30;99.90;;;;;;5110296;28;20128;-76
2023/07/07 07:05:09;;;;;;;12.05;5.90;;;20.50;99.90;;;;;;5110861;28;20048;-75
2023/07/07 07:07:34;;;;;;;12.05;6.55;;;20.80;99.90;;;;;;5109500;28;20052;-76
2023/07/07 07:10:02;;;;;;;15.88;6.30;;;20.90;99.90;;;;;;5110663;28;20043;-80
2023/07/07 07:12:28;;;;;;;10.60;5.88;;;21.10;99.90;;;;;;5110443;28;20047;-74
2023/07/07 07:14:54;;;;;;;10.07;5.32;;;21.40;99.90;;;;;;5110151;28;20047;-74
2023/07/07 07:17:21;;;;;;;9.40;6.00;;;21.70;99.90;;;;;;5110345;28;20055;-74
2023/07/07 07:19:47;;;;;;;12.60;5.70;;;21.90;99.90;;;;;;5110522;28;20043;-74
2023/07/07 07:22:13;;;;;;;10.80;5.60;;;22.20;99.90;;;;;;5110264;28;20031;-74
2023/07/07 07:24:38;;;;;;;10.18;5.68;;;22.40;99.90;;;;;;5110537;28;20050;-74
2023/07/07 07:27:05;;;;;;;9.93;5.20;;;22.60;99.90;;;;;;5110553;28;20047;-75
2023/07/07 07:29:31;;;;;;;11.65;5.93;;;22.80;99.90;;;;;;5108724;28;20131;-74
2023/07/07 07:31:56;;;;;;;15.23;6.07;;;22.90;99.90;;;;;;5110531;28;20043;-74
2023/07/07 07:34:27;;;;;;;9.45;4.70;;;23.20;99.90;;;;;;5109131;28;20113;-74
2023/07/07 07:36:54;;;;;;;9.75;4.95;;;23.30;99.90;;;;;;5109044;28;20052;-74
2023/07/07 07:39:21;;;;;;;9.65;4.88;;;23.60;99.90;;;;;;5110431;28;20120;-75
2023/07/07 07:41:48;;;;;;;8.20;4.28;;;23.80;99.90;;;;;;5108815;28;20050;-74
2023/07/07 07:44:15;;;;;;;9.30;4.18;;;24.10;99.90;;;;;;5109654;28;20064;-74
2023/07/07 07:46:42;;;;;;;8.70;4.32;;;24.20;99.90;;;;;;5105988;28;20127;-73
2023/07/07 07:49:08;;;;;;;7.65;3.65;;;24.30;99.90;;;;;;5110346;28;20040;-74
2023/07/07 07:51:37;;;;;;;9.77;3.65;;;24.50;99.90;;;;;;5109902;28;20055;-74
2023/07/07 07:54:04;;;;;;;8.75;3.20;;;24.60;99.90;;;;;;5104340;28;20085;-75
2023/07/07 07:56:29;;;;;;;12.52;3.67;;;24.80;99.90;;;;;;5109992;28;20071;-74
2023/07/07 07:58:55;;;;;;;8.18;3.10;;;24.90;99.90;;;;;;5110022;28;20070;-74
2023/07/07 08:01:21;;;;;;;10.05;3.60;;;24.90;99.90;;;;;;5109276;28;20108;-74
2023/07/07 08:03:46;;;;;;;7.72;3.30;;;25.10;99.90;;;;;;5110490;28;20062;-74
2023/07/07 08:06:12;;;;;;;7.60;3.10;;;25.20;99.90;;;;;;5109928;28;20057;-71
2023/07/07 08:08:37;;;;;;;8.63;3.10;;;25.40;99.90;;;;;;5109519;28;20386;-72
2023/07/07 08:11:03;;;;;;;7.70;3.25;;;25.40;99.90;;;;;;5110324;28;20127;-72
2023/07/07 08:13:29;;;;;;;6.07;3.05;;;25.50;99.90;;;;;;5109295;28;20043;-71
2023/07/07 08:15:54;;;;;;;5.22;3.05;;;25.50;99.90;;;;;;5108708;28;20044;-72
2023/07/07 08:18:20;;;;;;;5.38;2.15;;;25.60;99.90;;;;;;5110121;28;20153;-72
2023/07/07 08:20:46;;;;;;;5.63;2.17;;;25.70;99.90;;;;;;5110505;28;20724;-73
2023/07/07 08:23:11;;;;;;;6.07;2.35;;;25.80;99.90;;;;;;5109103;28;20402;-73
2023/07/07 08:25:37;;;;;;;4.35;2.30;;;25.80;99.90;;;;;;5110453;28;20545;-71
2023/07/07 08:28:03;;;;;;;3.83;1.90;;;25.90;99.90;;;;;;5108990;28;20058;-72
2023/07/07 08:30:29;;;;;;;4.93;2.25;;;25.90;99.90;;;;;;5109248;28;20051;-73
2023/07/07 08:32:55;;;;;;;7.28;2.30;;;25.90;99.90;;;;;;5109814;28;20048;-73
2023/07/07 08:35:21;;;;;;;5.47;2.00;;;25.90;99.90;;;;;;5110585;28;20110;-73
2023/07/07 08:37:46;;;;;;;4.30;1.83;;;26.10;99.90;;;;;;5110413;28;20036;-73
2023/07/07 08:40:24;;;;;;;4.78;2.28;;;26.30;99.90;;;;;;5092140;28;20087;-74
2023/07/07 08:42:50;;;;;;;4.45;2.10;;;26.10;98.40;;;;;;5101520;28;20050;-71
2023/07/07 08:45:20;;;;;;;4.45;1.70;;;26.20;99.90;;;;;;5110283;28;20044;-73
2023/07/07 08:48:05;;;;;;;5.55;2.15;;;26.20;99.40;;;;;;5109445;28;20067;-73
2023/07/07 08:50:36;;;;;;;6.57;2.10;;;26.20;97.60;;;;;;5109025;28;20777;-73
2023/07/07 08:53:11;;;;;;;8.77;2.92;;;26.40;98.40;;;;;;5101903;28;20070;-73
2023/07/07 08:56:12;;;;;;;7.93;1.90;;;26.50;98.80;;;;;;5109422;28;20040;-72
2023/07/07 08:58:47;;;;;;;5.28;2.00;;;26.60;96.40;;;;;;5103971;28;20056;-73
2023/07/07 09:01:12;;;;;;;3.50;1.77;;;26.70;97.50;;;;;;5104381;28;20799;-72
2023/07/07 09:04:02;;;;;;;5.60;2.00;;;26.70;98.60;;;;;;5112229;28;20042;-72
2023/07/07 09:06:40;;;;;;;4.80;1.50;;;26.70;95.60;;;;;;5112038;28;20401;-72
2023/07/07 09:09:33;;;;;;;6.15;1.70;;;26.70;95.20;;;;;;5112038;28;20088;-71
2023/07/07 09:12:38;;;;;;;8.25;2.10;;;26.80;94.90;;;;;;5113717;28;20044;-72
2023/07/07 09:15:17;;;;;;;;;;;27.00;96.20;;;;;;5112133;28;20044;-74
2023/07/07 09:17:48;;;;;;;6.10;2.13;;;26.90;94.00;;;;;;5111536;28;19923;-73
2023/07/07 09:20:15;;;;;;;3.40;1.70;;;27.00;95.00;;;;;;5113356;28;20066;-76
2023/07/07 09:22:58;;;;;;;4.80;1.92;;;27.20;96.10;;;;;;5111977;28;20059;-74
2023/07/07 09:25:34;;;;;;;4.85;1.95;;;27.30;94.70;;;;;;5113156;28;20047;-75
2023/07/07 09:28:05;;;;;;;4.40;1.90;;;27.30;94.10;;;;;;5108275;28;20494;-77
2023/07/07 09:30:52;;;;;;;4.75;1.90;;;27.40;94.10;;;;;;5094715;28;20039;-73
2023/07/07 09:33:21;;;;;;;4.75;2.05;;;27.60;95.30;;;;;;5112668;28;20397;-70
2023/07/07 09:36:12;;;;;;;6.78;1.75;;;27.50;95.50;;;;;;5113011;28;20379;-70
2023/07/07 09:39:01;;;;;;;6.00;2.05;;;27.70;92.70;;;;;;5112023;28;20048;-69
2023/07/07 09:41:53;;;;;;;4.57;1.80;;;27.70;94.80;;;;;;5113154;28;20052;-69
2023/07/07 09:44:28;;;;;;;5.53;1.92;;;27.80;93.50;;;;;;5111339;28;21367;-70
2023/07/07 09:47:08;;;;;;;4.47;1.98;;;27.90;94.50;;;;;;5111134;28;20379;-70
2023/07/07 09:49:47;;;;;;;7.45;2.08;;;27.90;93.80;;;;;;5111984;28;20036;-70
2023/07/07 09:52:33;;;;;;;9.43;2.10;;;28.00;92.80;;;;;;5110142;28;20048;-71
2023/07/07 09:55:00;;;;;;;4.13;1.77;;;27.90;92.00;;;;;;5111914;28;20051;-70
2023/07/07 09:57:31;;;;;;;4.75;1.90;;;28.00;93.30;;;;;;5112378;28;20043;-70
2023/07/07 09:59:59;;;;;;;6.35;2.13;;;28.10;93.50;;;;;;5112145;27;20040;-69
2023/07/07 10:02:25;;;;;;;6.32;2.10;;;28.20;93.50;;;;;;5110490;28;20134;-70
2023/07/07 10:05:11;;;;;;;4.85;1.80;;;28.30;93.10;;;;;;5111456;28;20572;-68
2023/07/07 10:07:42;;;;;;;5.00;1.80;;;28.20;92.80;;;;;;5110168;28;20047;-70
2023/07/07 10:10:15;;;;;;;2.92;1.80;;;28.30;92.60;;;;;;5111997;28;20046;-72
2023/07/07 10:12:41;;;;;;;7.18;2.03;;;28.20;91.90;;;;;;5112011;28;20055;-73
2023/07/07 10:15:40;;;;;;;4.50;1.88;;;28.40;92.70;;;;;;5110495;28;20032;-70
2023/07/07 10:18:28;;;;;;;3.13;1.67;;;28.50;90.40;;;;;;5111351;28;20047;-71
2023/07/07 10:20:57;;;;;;;6.28;1.85;;;28.50;91.70;;;;;;5104959;28;20501;-71
2023/07/07 10:23:28;;;;;;;4.25;1.88;;;28.60;91.90;;;;;;5109677;28;20105;-74
2023/07/07 10:25:54;;;;;;;3.60;1.85;;;28.60;91.40;;;;;;5111494;28;20075;-75
2023/07/07 10:28:21;;;;;;;3.83;1.73;;;28.40;91.30;;;;;;5109522;28;20083;-75
2023/07/07 10:30:47;;;;;;;5.38;1.80;;;28.50;91.50;;;;;;5109904;28;20090;-71
2023/07/07 10:33:15;;;;;;;6.60;1.70;;;28.60;91.80;;;;;;5111191;28;20084;-73
2023/07/07 10:35:41;;;;;;;6.90;1.73;;;28.80;91.70;;;;;;5110907;28;20088;-76
2023/07/07 10:38:09;;;;;;;9.38;2.00;;;28.80;91.60;;;;;;5111337;28;20035;-74
2023/07/07 10:40:35;;;;;;;4.22;2.03;;;28.90;91.20;;;;;;5110863;28;20098;-73
2023/07/07 10:43:02;;;;;;;5.60;2.30;;;29.00;91.40;;;;;;5110022;28;20040;-73
2023/07/07 10:45:28;;;;;;;5.88;1.85;;;29.00;91.10;;;;;;5109787;28;20032;-74
2023/07/07 10:47:54;;;;;;;3.42;1.85;;;29.10;91.20;;;;;;5102460;28;20068;-76
2023/07/07 10:50:24;;;;;;;6.05;2.08;;;29.10;90.70;;;;;;5110891;28;20043;-75
2023/07/07 10:53:06;;;;;;;5.10;2.03;;;29.10;90.30;;;;;;5109675;28;20545;-74
2023/07/07 10:55:40;;;;;;;4.30;1.90;;;29.10;89.40;;;;;;5111088;28;20122;-75
2023/07/07 10:58:11;;;;;;;7.28;2.20;;;29.00;89.80;;;;;;5102439;28;20054;-73
2023/07/07 11:00:37;;;;;;;3.42;1.80;;;29.00;90.30;;;;;;5110837;28;20126;-74
2023/07/07 11:03:05;;;;;;;4.00;1.75;;;29.00;90.50;;;;;;5109488;28;20122;-73
2023/07/07 11:05:45;;;;;;;5.53;2.08;;;28.90;90.50;;;;;;5110752;28;20047;-74
2023/07/07 11:09:05;;;;;;;4.03;1.98;;;28.80;87.60;;;;;;5110188;28;20058;-75
2023/07/07 11:12:01;;;;;;;4.65;1.90;;;28.90;90.50;;;;;;5030939;28;20090;-75
2023/07/07 11:14:57;;;;;;;4.38;1.77;;;29.10;89.20;;;;;;5039598;28;20099;-75
2023/07/07 11:17:44;;;;;;;5.32;1.67;;;29.20;90.10;;;;;;4971503;28;20058;-75
2023/07/07 11:20:25;;;;;;;7.68;2.10;;;29.30;89.00;;;;;;4971620;28;20069;-76
2023/07/07 11:23:03;;;;;;;4.70;1.70;;;29.20;87.70;;;;;;4970945;28;20137;-74
2023/07/07 11:25:46;;;;;;;5.00;1.95;;;29.20;88.00;;;;;;4987925;28;20412;-73
2023/07/07 11:28:11;;;;;;;5.38;2.30;;;29.10;87.20;;;;;;4971742;28;20408;-73
2023/07/07 11:31:08;;;;;;;4.15;1.73;;;29.10;89.50;;;;;;4979915;28;20038;-73
2023/07/07 11:33:46;;;;;;;7.65;1.92;;;28.80;89.40;;;;;;4948870;28;20410;-75
2023/07/07 11:36:42;;;;;;;5.95;2.13;;;29.10;90.00;;;;;;4949352;29;20067;-74
2023/07/07 11:39:31;;;;;;;3.92;1.80;;;29.00;86.60;;;;;;4943952;29;20149;-73
2023/07/07 11:42:24;;;;;;;4.22;1.95;;;28.70;86.30;;;;;;4939583;29;20058;-73
2023/07/07 11:44:56;;;;;;;7.28;1.92;;;28.70;88.40;;;;;;4962099;28;20487;-75
2023/07/07 11:47:56;;;;;;;6.65;2.20;;;28.60;88.20;;;;;;4987802;28;20061;-75
2023/07/07 11:50:49;;;;;;;5.70;1.70;;;28.50;85.30;;;;;;4986174;28;20618;-75
2023/07/07 11:53:23;;;;;;;4.95;1.83;;;28.60;85.10;;;;;;4974899;28;20069;-73
2023/07/07 11:56:00;;;;;;;4.85;1.77;;;28.80;88.00;;;;;;5044797;28;20170;-73
2023/07/07 11:58:43;;;;;;;4.43;2.00;;;29.00;88.60;;;;;;5030256;28;20084;-73
2023/07/07 12:01:18;;;;;;;5.43;1.73;;;29.10;88.20;;;;;;5032993;28;20040;-72
2023/07/07 12:04:06;;;;;;;3.58;1.85;;;29.50;90.60;;;;;;5046830;28;20138;-73
2023/07/07 12:06:45;;;;;;;4.30;2.13;;;29.40;87.90;;;;;;5041213;28;20040;-74
2023/07/07 12:09:32;;;;;;;4.68;2.10;;;29.00;87.30;;;;;;5056250;28;20065;-72
2023/07/07 12:12:36;;;;;;;5.22;1.98;;;29.10;87.90;;;;;;5109640;28;20036;-75
2023/07/07 12:15:15;;;;;;;11.65;2.40;;;29.20;87.90;;;;;;5030051;28;20057;-76
2023/07/07 12:17:50;;;;;;;4.68;1.77;;;29.10;86.10;;;;;;5046600;28;20040;-73
2023/07/07 12:20:23;;;;;;;3.75;1.67;;;29.00;85.60;;;;;;5046392;28;20130;-74
2023/07/07 12:22:50;;;;;;;4.10;1.98;;;28.90;85.80;;;;;;5046703;28;20081;-73
2023/07/07 12:25:24;;;;;;;5.80;1.90;;;28.80;87.60;;;;;;5028310;28;20056;-72
2023/07/07 12:27:53;;;;;;;6.15;1.75;;;29.00;84.60;;;;;;5045285;28;20479;-73
2023/07/07 12:30:31;;;;;;;4.10;2.05;;;29.20;86.90;;;;;;5044202;28;20037;-74
2023/07/07 12:32:58;;;;;;;4.38;2.05;;;29.10;85.00;;;;;;5029917;28;20056;-73
2023/07/07 12:35:28;;;;;;;5.90;1.80;;;29.00;86.30;;;;;;5049635;28;20052;-74
2023/07/07 12:38:06;;;;;;;4.07;1.80;;;28.70;85.40;;;;;;5033763;28;20108;-73
2023/07/07 12:40:33;;;;;;;5.10;1.70;;;28.90;86.70;;;;;;5032844;28;20068;-74
2023/07/07 12:43:15;;;;;;;4.63;1.85;;;29.10;86.30;;;;;;5017353;28;20423;-75
2023/07/07 12:45:44;;;;;;;3.55;1.92;;;29.10;84.30;;;;;;5033527;28;20068;-75
2023/07/07 12:48:19;;;;;;;4.93;1.95;;;29.30;84.70;;;;;;5050845;28;20121;-73
2023/07/07 12:50:45;;;;;;;3.40;2.03;;;29.40;82.80;;;;;;5054367;28;20431;-74
2023/07/07 12:53:20;;;;;;;5.72;2.03;;;29.40;84.80;;;;;;5113138;28;20063;-73
2023/07/07 12:56:04;;;;;;;6.15;2.20;;;29.60;84.90;;;;;;5113054;28;20066;-72
2023/07/07 12:58:36;;;;;;;3.75;1.58;;;29.70;84.50;;;;;;5113345;28;20058;-75
2023/07/07 13:01:13;;;;;;;4.30;2.05;;;29.70;82.80;;;;;;5113174;28;20121;-75